Time;durP1;ratioP1;P1;durP2;ratioP2;P2;SDS_P1;SDS_P2;PMS_P1;PMS_P2;Temp;Humidity;BMP_temperature;BMP_pressure;BME280_temperature;BME280_humidity;BME280_pressure;Samples;Min_cycle;Max_cycle;Signal;HPM_P1;HPM_P2
2022/06/14 00:00:53;;;;;;;12.73;3.85;;;11.00;99.90;;;;;;5084046;28;20051;-81
2022/06/14 00:03:33;;;;;;;7.70;3.15;;;11.00;99.90;;;;;;5078755;28;20046;-81
2022/06/14 00:06:02;;;;;;;10.30;3.88;;;10.90;99.90;;;;;;5033832;28;20131;-81
2022/06/14 00:08:28;;;;;;;12.00;2.90;;;11.00;99.90;;;;;;5081118;28;20036;-80
2022/06/14 00:10:56;;;;;;;11.60;4.95;;;10.90;99.90;;;;;;5086191;28;20059;-81
2022/06/14 00:13:22;;;;;;;12.23;3.28;;;10.80;99.90;;;;;;5078953;28;20598;-82
2022/06/14 00:15:49;;;;;;;8.32;3.78;;;10.80;99.90;;;;;;5080238;28;20055;-81
2022/06/14 00:18:16;;;;;;;9.18;4.10;;;10.80;99.90;;;;;;5063391;28;20075;-81
2022/06/14 00:20:44;;;;;;;12.52;3.60;;;10.80;99.90;;;;;;5079920;28;20127;-81
2022/06/14 00:23:10;;;;;;;12.57;3.53;;;10.80;99.90;;;;;;5075436;28;20086;-80
2022/06/14 00:25:39;;;;;;;10.13;3.15;;;10.80;99.90;;;;;;5079383;28;20904;-81
2022/06/14 00:28:06;;;;;;;9.88;3.90;;;10.70;99.90;;;;;;5063416;28;20036;-80
2022/06/14 00:30:33;;;;;;;8.40;3.67;;;10.70;99.90;;;;;;5079933;28;20040;-81
2022/06/14 00:32:59;;;;;;;15.02;5.03;;;10.60;99.90;;;;;;5062991;28;20981;-80
2022/06/14 00:35:25;;;;;;;12.00;3.95;;;10.50;99.90;;;;;;5064662;28;20449;-81
2022/06/14 00:37:51;;;;;;;12.48;5.35;;;10.60;99.90;;;;;;5081290;28;20045;-81
2022/06/14 00:40:20;;;;;;;9.77;4.40;;;10.50;99.90;;;;;;5080637;28;20040;-81
2022/06/14 00:42:46;;;;;;;11.88;3.88;;;10.50;99.90;;;;;;5081795;28;20099;-81
2022/06/14 00:45:12;;;;;;;11.52;5.15;;;10.40;99.90;;;;;;5081895;28;20169;-81
2022/06/14 00:47:45;;;;;;;7.70;4.13;;;10.40;99.90;;;;;;5083799;28;20116;-81
2022/06/14 00:50:19;;;;;;;10.75;4.00;;;10.40;99.90;;;;;;5082775;28;20115;-80
2022/06/14 00:52:55;;;;;;;12.13;4.55;;;10.40;99.90;;;;;;5078916;28;20628;-81
2022/06/14 00:55:30;;;;;;;9.68;4.57;;;10.30;99.90;;;;;;5084262;28;20039;-80
2022/06/14 00:58:12;;;;;;;10.57;4.70;;;10.30;99.90;;;;;;5069373;28;20059;-81
2022/06/14 01:00:46;;;;;;;7.07;4.35;;;10.30;99.90;;;;;;5087528;28;20044;-81
2022/06/14 01:03:20;;;;;;;15.07;5.00;;;10.30;99.90;;;;;;5085703;28;20036;-80
2022/06/14 01:06:12;;;;;;;8.90;4.00;;;10.30;99.90;;;;;;5085154;28;20051;-81
2022/06/14 01:08:43;;;;;;;7.72;4.53;;;10.30;99.90;;;;;;5067139;28;20139;-81
2022/06/14 01:11:13;;;;;;;9.70;4.15;;;10.20;99.90;;;;;;5084007;28;20079;-80
2022/06/14 01:13:40;;;;;;;16.17;5.15;;;10.20;99.90;;;;;;5082908;28;20036;-74
2022/06/14 01:16:07;;;;;;;12.50;4.05;;;10.20;99.90;;;;;;5085355;28;20566;-79
2022/06/14 01:18:33;;;;;;;13.07;5.40;;;10.20;99.90;;;;;;5086958;28;20470;-80
2022/06/14 01:20:59;;;;;;;13.93;4.63;;;10.10;99.90;;;;;;5067819;28;20130;-80
2022/06/14 01:23:25;;;;;;;9.35;4.15;;;10.00;99.90;;;;;;5080443;28;20158;-81
2022/06/14 01:25:58;;;;;;;17.52;5.13;;;10.10;99.90;;;;;;5087221;28;20117;-80
2022/06/14 01:28:26;;;;;;;16.27;4.70;;;10.10;99.90;;;;;;5051019;28;20044;-80
2022/06/14 01:30:52;;;;;;;16.60;4.35;;;10.10;99.90;;;;;;5086093;28;20040;-80
2022/06/14 01:33:20;;;;;;;10.48;3.42;;;10.00;99.90;;;;;;5066130;28;20044;-80
2022/06/14 01:35:52;;;;;;;10.32;3.63;;;10.00;99.90;;;;;;5086371;28;20426;-80
2022/06/14 01:38:19;;;;;;;10.18;4.35;;;9.90;99.90;;;;;;5084953;28;20036;-80
2022/06/14 01:40:58;;;;;;;7.90;3.90;;;9.80;99.90;;;;;;5084596;28;20094;-80
2022/06/14 01:43:43;;;;;;;12.07;3.67;;;9.90;99.90;;;;;;5086699;28;20044;-79
2022/06/14 01:46:28;;;;;;;9.65;2.80;;;9.90;99.90;;;;;;5093751;28;20298;-75
2022/06/14 01:52:42;;;;;;;12.13;3.53;;;9.80;99.90;;;;;;5022195;28;20095;-79
2022/06/14 01:55:30;;;;;;;14.18;5.47;;;9.80;99.90;;;;;;5057536;22;20661;-81
2022/06/14 01:58:29;;;;;;;11.00;3.75;;;9.90;99.90;;;;;;5048928;28;20057;-80
2022/06/14 02:01:14;;;;;;;10.55;3.45;;;9.80;99.90;;;;;;5046821;28;20048;-81
2022/06/14 02:06:45;;;;;;;7.85;3.53;;;9.80;99.90;;;;;;5068517;28;20067;-80
2022/06/14 02:09:46;;;;;;;9.02;3.47;;;9.80;99.90;;;;;;5068071;28;20036;-81
2022/06/14 02:12:19;;;;;;;8.18;4.20;;;9.70;99.90;;;;;;4986412;28;20344;-80
2022/06/14 02:14:57;;;;;;;7.85;3.00;;;9.70;99.90;;;;;;5051977;28;20049;-80
2022/06/14 02:17:29;;;;;;;11.73;3.15;;;9.70;99.90;;;;;;5066650;28;20548;-79
2022/06/14 02:20:10;;;;;;;6.70;4.15;;;9.70;99.90;;;;;;5068248;28;20083;-81
2022/06/14 02:22:37;;;;;;;;;;;9.70;99.90;;;;;;5065322;28;20190;-80
2022/06/14 02:25:19;;;;;;;8.77;3.20;;;9.70;99.90;;;;;;5061066;28;19924;-76
2022/06/14 02:27:51;;;;;;;8.50;3.60;;;9.60;99.90;;;;;;5054598;28;20130;-80
2022/06/14 02:30:22;;;;;;;10.10;4.05;;;9.70;99.90;;;;;;5068706;28;20036;-81
2022/06/14 02:33:25;;;;;;;9.43;3.42;;;9.60;99.90;;;;;;5063921;28;20044;-74
2022/06/14 02:36:13;;;;;;;10.85;3.90;;;9.50;99.90;;;;;;5071076;28;20440;-80
2022/06/14 02:39:08;;;;;;;13.30;4.35;;;9.60;99.90;;;;;;5050690;28;20463;-80
2022/06/14 02:41:45;;;;;;;13.48;3.58;;;9.50;99.90;;;;;;5063692;28;20056;-80
2022/06/14 02:44:17;;;;;;;10.20;3.75;;;9.60;99.90;;;;;;5062194;28;20128;-80
2022/06/14 02:47:03;;;;;;;11.20;4.05;;;9.60;99.90;;;;;;5083315;28;20043;-81
2022/06/14 02:49:35;;;;;;;9.20;3.08;;;9.50;99.90;;;;;;5046664;28;20049;-81
2022/06/14 02:52:12;;;;;;;10.13;3.17;;;9.50;99.90;;;;;;5063960;28;20494;-76
2022/06/14 02:54:44;;;;;;;8.65;3.78;;;9.40;99.90;;;;;;5040992;28;20398;-80
2022/06/14 02:57:19;;;;;;;11.10;3.47;;;9.50;99.90;;;;;;5085690;28;20395;-80
2022/06/14 02:59:53;;;;;;;9.35;3.83;;;9.50;99.90;;;;;;5074663;28;20124;-81
2022/06/14 03:02:25;;;;;;;6.95;2.55;;;9.50;99.90;;;;;;5050312;28;20040;-80
2022/06/14 03:04:56;;;;;;;10.57;3.10;;;9.40;99.90;;;;;;5064117;28;20051;-80
2022/06/14 03:07:28;;;;;;;8.65;3.22;;;9.40;99.90;;;;;;5073767;28;20093;-80
2022/06/14 03:09:55;;;;;;;16.75;3.25;;;9.50;99.90;;;;;;5076110;28;20175;-80
2022/06/14 03:12:43;;;;;;;11.85;3.88;;;9.50;99.90;;;;;;5064487;28;20461;-77
2022/06/14 03:15:21;;;;;;;8.77;3.38;;;9.50;99.90;;;;;;5062495;28;20293;-78
2022/06/14 03:17:52;;;;;;;12.27;3.40;;;9.40;99.90;;;;;;5055030;28;20048;-82
2022/06/14 03:20:18;;;;;;;14.50;3.33;;;9.50;99.90;;;;;;5039269;28;20123;-81
2022/06/14 03:23:01;;;;;;;13.77;4.32;;;9.40;99.90;;;;;;5064360;28;20198;-81
2022/06/14 03:25:46;;;;;;;7.80;2.78;;;9.40;99.90;;;;;;5055623;28;20044;-80
2022/06/14 03:28:22;;;;;;;7.32;3.13;;;9.40;99.90;;;;;;5065492;28;20056;-79
2022/06/14 03:31:05;;;;;;;20.00;4.68;;;9.40;99.90;;;;;;5053900;28;20056;-81
2022/06/14 03:33:42;;;;;;;8.32;3.65;;;9.40;99.90;;;;;;5063176;28;20045;-79
2022/06/14 03:36:10;;;;;;;9.18;3.25;;;9.50;99.90;;;;;;5051412;28;20911;-81
2022/06/14 03:38:44;;;;;;;14.95;3.90;;;9.50;99.90;;;;;;5063977;28;20149;-82
2022/06/14 03:41:12;;;;;;;11.93;4.68;;;9.40;99.90;;;;;;5062212;28;20076;-79
2022/06/14 03:43:39;;;;;;;18.50;5.07;;;9.40;99.90;;;;;;5064657;28;20055;-75
2022/06/14 03:46:15;;;;;;;11.73;3.45;;;9.50;99.90;;;;;;5065078;28;20094;-79
2022/06/14 03:48:46;;;;;;;9.98;4.28;;;9.40;99.90;;;;;;5063922;28;20044;-80
2022/06/14 03:51:17;;;;;;;;;;;9.40;99.90;;;;;;5063080;28;20044;-80
2022/06/14 03:54:10;;;;;;;9.48;3.97;;;9.40;99.90;;;;;;5061434;28;19921;-80
2022/06/14 03:56:54;;;;;;;11.27;5.10;;;9.40;99.90;;;;;;5069794;28;20524;-79
2022/06/14 03:59:26;;;;;;;10.82;4.47;;;9.50;99.90;;;;;;5044746;28;20051;-79
2022/06/14 04:02:21;;;;;;;10.43;3.20;;;9.60;99.90;;;;;;5062609;28;20037;-80
2022/06/14 04:05:04;;;;;;;12.00;4.43;;;9.50;99.90;;;;;;5060331;28;20084;-82
2022/06/14 04:07:39;;;;;;;9.48;4.18;;;9.50;99.90;;;;;;5049991;28;20187;-82
2022/06/14 04:10:12;;;;;;;11.02;4.10;;;9.50;99.90;;;;;;5062635;28;20071;-80
2022/06/14 04:13:06;;;;;;;13.43;5.45;;;9.60;99.90;;;;;;5062257;28;20084;-80
2022/06/14 04:16:13;;;;;;;11.63;4.80;;;9.60;99.90;;;;;;5057750;28;20043;-81
2022/06/14 04:19:20;;;;;;;18.33;5.47;;;9.60;99.90;;;;;;5001839;28;20050;-75
2022/06/14 04:22:00;;;;;;;12.98;3.90;;;9.70;99.90;;;;;;5040775;28;20056;-80
2022/06/14 04:25:04;;;;;;;12.05;5.03;;;9.80;99.90;;;;;;5062160;28;20516;-80
2022/06/14 04:27:52;;;;;;;6.93;3.78;;;9.80;99.90;;;;;;5060747;28;20098;-80
2022/06/14 04:30:25;;;;;;;11.32;4.50;;;9.80;99.90;;;;;;5066796;28;20457;-80
2022/06/14 04:32:57;;;;;;;11.75;5.15;;;10.20;99.90;;;;;;5064129;28;20379;-78
2022/06/14 04:35:34;;;;;;;23.15;6.32;;;10.30;99.90;;;;;;5053674;28;20056;-80
2022/06/14 04:38:09;;;;;;;13.77;4.97;;;10.60;99.90;;;;;;5046820;28;20048;-80
2022/06/14 04:40:41;;;;;;;11.95;6.30;;;10.40;99.90;;;;;;5065835;28;20044;-81
2022/06/14 04:43:12;;;;;;;10.00;3.35;;;10.50;99.90;;;;;;5073199;28;20067;-80
2022/06/14 04:45:45;;;;;;;8.68;4.10;;;10.50;99.90;;;;;;5065311;28;20033;-81
2022/06/14 04:48:17;;;;;;;9.27;3.25;;;10.90;99.90;;;;;;5086778;28;20046;-79
2022/06/14 04:51:13;;;;;;;9.80;3.42;;;11.40;99.90;;;;;;5079960;28;20055;-79
2022/06/14 04:53:42;;;;;;;8.73;3.40;;;11.10;99.90;;;;;;5036463;28;20060;-78
2022/06/14 04:56:32;;;;;;;9.68;3.78;;;11.10;99.90;;;;;;5059042;28;20114;-80
2022/06/14 04:59:08;;;;;;;9.63;3.47;;;11.10;99.90;;;;;;5066528;28;20045;-80
2022/06/14 05:01:56;;;;;;;13.95;4.53;;;11.10;99.90;;;;;;5056700;28;20565;-80
2022/06/14 05:04:36;;;;;;;8.27;3.42;;;11.20;99.90;;;;;;5066369;28;20087;-80
2022/06/14 05:07:02;;;;;;;;;;;11.40;99.90;;;;;;5069925;28;20056;-80
2022/06/14 05:09:34;;;;;;;7.93;4.65;;;11.30;99.90;;;;;;5066289;28;20001;-81
2022/06/14 05:12:25;;;;;;;10.00;3.88;;;11.40;99.90;;;;;;5053046;28;20052;-79
2022/06/14 05:15:11;;;;;;;7.72;3.40;;;11.40;99.90;;;;;;5047543;28;20419;-80
2022/06/14 05:17:50;;;;;;;10.20;4.22;;;11.40;99.90;;;;;;5080451;28;20044;-79
2022/06/14 05:20:21;;;;;;;7.57;3.20;;;11.50;99.90;;;;;;5065658;28;20060;-79
2022/06/14 05:23:01;;;;;;;10.60;4.20;;;11.60;99.90;;;;;;5062924;28;20170;-79
2022/06/14 05:25:43;;;;;;;8.98;3.92;;;11.60;99.90;;;;;;5050254;28;20044;-80
2022/06/14 05:28:13;;;;;;;10.70;4.53;;;11.70;99.90;;;;;;5055677;28;20044;-79
2022/06/14 05:31:01;;;;;;;20.15;4.55;;;11.70;99.90;;;;;;5064884;28;20056;-76
2022/06/14 05:33:53;;;;;;;10.25;4.07;;;11.70;99.90;;;;;;5047144;28;20379;-79
2022/06/14 05:36:47;;;;;;;10.48;4.13;;;11.80;99.90;;;;;;5009474;28;20055;-80
2022/06/14 05:39:40;;;;;;;8.85;4.53;;;11.90;99.90;;;;;;5049685;28;20414;-80
2022/06/14 05:42:13;;;;;;;11.15;3.42;;;12.00;99.90;;;;;;5022794;28;20044;-79
2022/06/14 05:44:44;;;;;;;11.65;3.33;;;12.10;99.90;;;;;;5087315;28;20040;-74
2022/06/14 05:47:40;;;;;;;8.13;4.43;;;12.20;99.90;;;;;;5083129;28;20108;-80
2022/06/14 05:50:13;;;;;;;11.02;3.60;;;12.30;99.90;;;;;;5073780;28;20053;-81
2022/06/14 05:52:48;;;;;;;9.00;3.70;;;12.30;99.90;;;;;;5064309;28;20132;-80
2022/06/14 05:55:23;;;;;;;11.80;3.58;;;12.40;99.90;;;;;;5048865;28;20143;-79
2022/06/14 05:58:10;;;;;;;5.20;3.15;;;12.50;99.90;;;;;;5080370;28;20032;-81
2022/06/14 06:00:56;;;;;;;8.98;3.70;;;12.60;99.90;;;;;;5061822;28;20098;-80
2022/06/14 06:03:38;;;;;;;8.82;3.17;;;12.60;99.90;;;;;;5058625;28;20450;-79
2022/06/14 06:06:24;;;;;;;17.98;4.35;;;12.70;99.90;;;;;;5073763;28;20056;-79
2022/06/14 06:09:03;;;;;;;13.85;3.65;;;12.80;99.90;;;;;;5064683;28;20044;-80
2022/06/14 06:11:32;;;;;;;10.45;4.22;;;12.90;99.90;;;;;;5061193;28;20089;-80
2022/06/14 06:14:05;;;;;;;9.82;3.90;;;13.00;99.90;;;;;;5062603;28;20115;-80
2022/06/14 06:19:18;;;;;;;5.18;3.40;;;13.20;99.90;;;;;;5067101;28;20137;-79
2022/06/14 06:21:59;;;;;;;9.77;3.40;;;13.20;99.90;;;;;;5064438;28;20045;-80
2022/06/14 06:24:43;;;;;;;8.30;3.75;;;13.40;99.90;;;;;;5064038;28;20084;-80
2022/06/14 06:27:11;;;;;;;12.85;3.72;;;13.40;99.90;;;;;;5064208;28;20052;-78
2022/06/14 06:29:43;;;;;;;11.20;3.05;;;13.40;99.90;;;;;;5064495;28;20052;-79
2022/06/14 06:32:10;;;;;;;7.78;2.90;;;13.60;99.90;;;;;;5070242;28;20128;-79
2022/06/14 06:34:37;;;;;;;6.85;2.60;;;13.70;99.90;;;;;;5069461;28;20071;-79
2022/06/14 06:37:35;;;;;;;9.40;2.45;;;13.70;99.90;;;;;;5064379;28;20056;-80
2022/06/14 06:40:09;;;;;;;6.82;2.53;;;13.90;99.90;;;;;;5030195;28;20053;-79
2022/06/14 06:42:53;;;;;;;10.77;3.17;;;14.00;99.90;;;;;;5043855;28;20077;-79
2022/06/14 06:45:30;;;;;;;7.93;2.72;;;14.10;99.90;;;;;;5045418;28;20052;-75
2022/06/14 06:48:09;;;;;;;7.90;1.40;;;14.20;99.90;;;;;;5065021;28;20403;-79
2022/06/14 06:50:43;;;;;;;7.10;1.50;;;14.40;99.90;;;;;;5046181;28;20044;-80
2022/06/14 06:53:15;;;;;;;2.63;0.75;;;14.50;99.90;;;;;;5058485;28;20072;-79
2022/06/14 06:56:19;;;;;;;5.50;1.77;;;14.60;99.90;;;;;;5061373;28;20101;-79
2022/06/14 06:58:57;;;;;;;4.60;1.95;;;14.80;99.90;;;;;;5002662;28;20161;-78
2022/06/14 07:01:31;;;;;;;7.95;1.65;;;16.00;99.90;;;;;;5052754;28;20056;-79
2022/06/14 07:05:03;;;;;;;7.50;1.70;;;16.20;99.90;;;;;;5051093;28;20079;-79
2022/06/14 07:07:48;;;;;;;4.10;1.50;;;17.40;99.90;;;;;;5061677;28;20041;-80
2022/06/14 07:10:55;;;;;;;6.72;1.73;;;18.40;99.90;;;;;;5043546;28;20411;-78
2022/06/14 07:13:28;;;;;;;3.03;1.05;;;19.30;99.90;;;;;;4963354;28;20054;-78
2022/06/14 07:16:11;;;;;;;9.55;1.88;;;19.70;99.90;;;;;;5051276;28;20052;-79
2022/06/14 07:18:50;;;;;;;7.15;2.15;;;20.10;99.90;;;;;;5065053;28;20483;-79
2022/06/14 07:21:18;;;;;;;4.63;1.38;;;18.20;99.90;;;;;;5059862;28;20036;-79
2022/06/14 07:23:55;;;;;;;4.63;1.30;;;17.30;99.90;;;;;;5044704;28;20041;-79
2022/06/14 07:26:34;;;;;;;10.77;1.55;;;16.60;99.90;;;;;;5058302;28;20048;-77
2022/06/14 07:29:02;;;;;;;7.63;1.40;;;17.10;99.90;;;;;;5054446;28;20055;-81
2022/06/14 07:31:31;;;;;;;5.28;1.05;;;16.70;99.90;;;;;;5046913;28;20060;-82
2022/06/14 07:33:58;;;;;;;3.53;1.08;;;16.30;99.90;;;;;;5065849;28;20044;-78
2022/06/14 07:36:36;;;;;;;5.00;1.52;;;15.90;99.90;;;;;;5070483;28;20056;-82
2022/06/14 07:39:23;;;;;;;6.18;1.05;;;15.60;99.90;;;;;;5048207;28;20502;-81
2022/06/14 07:41:54;;;;;;;5.88;2.60;;;15.40;99.90;;;;;;5068283;28;20049;-77
2022/06/14 07:44:31;;;;;;;7.70;1.80;;;15.50;99.90;;;;;;5067594;28;20467;-80
2022/06/14 07:47:23;;;;;;;3.35;1.33;;;17.40;99.90;;;;;;5064850;28;20044;-80
2022/06/14 07:50:11;;;;;;;11.27;2.63;;;18.40;99.90;;;;;;5048931;28;20048;-77
2022/06/14 07:53:15;;;;;;;8.48;1.10;;;18.30;99.90;;;;;;5054331;28;20088;-80
2022/06/14 07:55:52;;;;;;;3.80;1.73;;;18.00;99.90;;;;;;5069699;28;20074;-79
2022/06/14 07:58:30;;;;;;;4.65;1.42;;;18.00;99.90;;;;;;5058323;28;20121;-76
2022/06/14 08:01:09;;;;;;;5.35;2.03;;;18.00;99.90;;;;;;5067950;28;20054;-80
2022/06/14 08:03:51;;;;;;;6.90;1.17;;;18.10;99.90;;;;;;5082466;28;20092;-79
2022/06/14 08:06:24;;;;;;;3.97;1.58;;;18.10;99.90;;;;;;5064735;28;20337;-78
2022/06/14 08:09:09;;;;;;;2.95;1.63;;;18.10;99.90;;;;;;5066015;28;20044;-79
2022/06/14 08:11:45;;;;;;;4.05;1.15;;;18.30;99.90;;;;;;5065977;28;20048;-80
2022/06/14 08:14:21;;;;;;;4.05;1.00;;;17.80;99.90;;;;;;5067411;28;20447;-80
2022/06/14 08:16:49;;;;;;;3.80;1.27;;;17.60;99.90;;;;;;5043482;28;20040;-80
2022/06/14 08:19:52;;;;;;;2.63;1.67;;;17.20;99.90;;;;;;5065516;28;20121;-81
2022/06/14 08:22:27;;;;;;;5.28;1.08;;;17.70;99.90;;;;;;5041111;28;20102;-80
2022/06/14 08:24:58;;;;;;;2.97;1.05;;;18.20;99.90;;;;;;5056861;28;20041;-80
2022/06/14 08:27:29;;;;;;;5.65;1.83;;;18.30;99.90;;;;;;5048508;28;20056;-79
2022/06/14 08:30:06;;;;;;;4.05;0.82;;;18.10;99.90;;;;;;5089681;28;20058;-78
2022/06/14 08:32:42;;;;;;;7.78;1.40;;;18.40;99.90;;;;;;5044313;28;20119;-81
2022/06/14 08:35:34;;;;;;;4.78;1.48;;;18.70;99.90;;;;;;5053809;28;20250;-77
2022/06/14 08:38:13;;;;;;;1.40;0.90;;;18.70;99.90;;;;;;5064359;28;20059;-81
2022/06/14 08:41:05;;;;;;;5.07;1.63;;;18.40;99.90;;;;;;5083363;28;20071;-80
2022/06/14 08:43:40;;;;;;;6.55;1.50;;;17.90;99.90;;;;;;5044666;28;20082;-81
2022/06/14 08:46:27;;;;;;;3.35;1.00;;;18.10;99.90;;;;;;5044463;28;20045;-81
2022/06/14 08:49:12;;;;;;;5.25;1.60;;;18.20;99.90;;;;;;5060895;28;20799;-82
2022/06/14 08:52:19;;;;;;;3.20;1.02;;;18.00;99.90;;;;;;5044138;28;20079;-81
2022/06/14 08:54:50;;;;;;;6.35;1.10;;;17.90;99.90;;;;;;4959768;28;20046;-81
2022/06/14 08:57:34;;;;;;;5.57;1.20;;;17.80;99.90;;;;;;5046202;28;20056;-81
2022/06/14 09:00:16;;;;;;;2.92;1.40;;;17.80;99.90;;;;;;5034537;28;20049;-78
2022/06/14 09:03:32;;;;;;;4.70;1.25;;;17.90;99.90;;;;;;5033054;28;20044;-78
2022/06/14 09:06:24;;;;;;;5.10;1.02;;;17.80;99.90;;;;;;5061385;28;20056;-79
2022/06/14 09:09:29;;;;;;;2.95;0.85;;;17.60;99.90;;;;;;5060864;28;20033;-79
2022/06/14 09:12:35;;;;;;;1.48;0.77;;;17.30;99.90;;;;;;5052207;28;20137;-78
2022/06/14 09:15:18;;;;;;;3.00;0.70;;;17.30;99.90;;;;;;5045076;28;20040;-76
2022/06/14 09:18:16;;;;;;;6.00;1.10;;;17.30;99.90;;;;;;5078851;28;20040;-78
2022/06/14 09:21:09;;;;;;;6.13;1.30;;;17.30;99.90;;;;;;5059131;28;20127;-78
2022/06/14 09:23:59;;;;;;;3.88;0.80;;;17.40;99.90;;;;;;5064189;28;20116;-80
2022/06/14 09:26:35;;;;;;;2.80;0.63;;;17.70;99.90;;;;;;5064980;28;20205;-80
2022/06/14 09:29:19;;;;;;;5.70;1.77;;;18.60;99.90;;;;;;5068121;28;20040;-76
2022/06/14 09:32:19;;;;;;;9.52;1.98;;;18.60;99.90;;;;;;5085992;28;20044;-80
2022/06/14 09:35:02;;;;;;;3.22;1.30;;;18.70;99.90;;;;;;5064370;28;20527;-80
2022/06/14 09:38:09;;;;;;;4.15;1.10;;;18.70;99.90;;;;;;5073250;28;20455;-81
2022/06/14 09:40:43;;;;;;;4.50;1.60;;;18.30;99.90;;;;;;5022967;28;20060;-80
2022/06/14 09:43:34;;;;;;;4.35;0.73;;;18.30;99.90;;;;;;5085859;28;20040;-80
2022/06/14 09:46:48;;;;;;;2.10;0.70;;;18.10;99.90;;;;;;5045818;28;20544;-81
2022/06/14 09:49:22;;;;;;;4.47;1.67;;;17.90;99.90;;;;;;4975368;28;20061;-81
2022/06/14 09:52:12;;;;;;;2.05;0.90;;;17.80;99.90;;;;;;5045498;28;20077;-79
2022/06/14 09:55:01;;;;;;;5.78;1.00;;;17.60;99.90;;;;;;5061238;28;20049;-80
2022/06/14 09:57:54;;;;;;;5.20;1.10;;;17.70;99.90;;;;;;5067166;28;20182;-80
2022/06/14 10:00:21;;;;;;;4.82;0.90;;;17.80;99.90;;;;;;5085039;28;20044;-77
2022/06/14 10:03:18;;;;;;;5.60;2.10;;;17.80;99.90;;;;;;5067718;28;20051;-79
2022/06/14 10:06:15;;;;;;;5.65;1.55;;;17.90;99.90;;;;;;5042306;28;20127;-78
2022/06/14 10:09:18;;;;;;;4.13;0.85;;;17.80;99.90;;;;;;5047191;28;20098;-78
2022/06/14 10:12:04;;;;;;;6.68;1.88;;;18.10;99.90;;;;;;5042368;28;20091;-80
2022/06/14 10:14:41;;;;;;;2.15;0.90;;;18.30;99.90;;;;;;5003972;28;20049;-78
2022/06/14 10:17:16;;;;;;;3.95;1.42;;;18.10;99.90;;;;;;5051909;28;20042;-79
2022/06/14 10:19:53;;;;;;;3.47;1.10;;;17.80;99.90;;;;;;5067093;28;20040;-79
2022/06/14 10:22:30;;;;;;;5.03;1.50;;;17.50;99.90;;;;;;5064736;28;20040;-76
2022/06/14 10:25:03;;;;;;;5.57;2.13;;;17.50;99.90;;;;;;5048168;28;20039;-80
2022/06/14 10:30:39;;;;;;;5.13;1.77;;;17.60;99.90;;;;;;5045376;28;20666;-79
2022/06/14 10:33:25;;;;;;;4.88;2.70;;;17.60;99.90;;;;;;5026887;28;20395;-77
2022/06/14 10:36:18;;;;;;;4.38;1.00;;;17.70;99.90;;;;;;5044734;28;20540;-77
2022/06/14 10:39:09;;;;;;;3.65;0.90;;;17.70;99.90;;;;;;5079073;28;20044;-77
2022/06/14 10:42:06;;;;;;;5.00;1.98;;;17.80;99.90;;;;;;5077729;28;20040;-77
2022/06/14 10:45:10;;;;;;;7.05;1.42;;;18.00;99.90;;;;;;5048106;28;20404;-76
2022/06/14 10:48:07;;;;;;;2.58;0.95;;;18.20;99.90;;;;;;5018287;28;20143;-80
2022/06/14 10:50:44;;;;;;;2.67;0.95;;;18.30;99.90;;;;;;5054891;28;20130;-73
2022/06/14 10:53:25;;;;;;;3.30;1.13;;;18.30;99.90;;;;;;5065549;28;20666;-80
2022/06/14 10:56:12;;;;;;;4.85;1.05;;;18.30;99.90;;;;;;5070780;28;20049;-81
2022/06/14 10:59:00;;;;;;;3.55;1.23;;;18.30;99.90;;;;;;5064665;28;20043;-81
2022/06/14 11:02:03;;;;;;;6.45;1.23;;;18.70;99.90;;;;;;5069413;28;20040;-81
2022/06/14 11:04:50;;;;;;;3.03;0.93;;;19.30;99.90;;;;;;5083060;28;20073;-81
2022/06/14 11:07:34;;;;;;;3.20;0.80;;;19.80;99.90;;;;;;5043593;28;20045;-81
2022/06/14 11:10:20;;;;;;;3.85;1.25;;;19.20;99.90;;;;;;5055461;28;20129;-81
2022/06/14 11:13:09;;;;;;;2.78;0.93;;;19.40;99.90;;;;;;5063108;28;20052;-79
2022/06/14 11:15:43;;;;;;;3.13;0.82;;;19.10;99.90;;;;;;5063301;28;20040;-79
2022/06/14 11:18:30;;;;;;;4.65;1.25;;;18.90;99.90;;;;;;5043543;28;20080;-79
2022/06/14 11:20:56;;;;;;;6.97;2.13;;;18.60;99.90;;;;;;5063131;28;20144;-80
2022/06/14 11:23:50;;;;;;;3.13;1.10;;;18.30;99.90;;;;;;5062523;28;20115;-79
2022/06/14 11:26:47;;;;;;;3.72;1.02;;;18.20;99.90;;;;;;5032436;28;20058;-78
2022/06/14 11:29:23;;;;;;;2.35;1.08;;;18.10;99.90;;;;;;5059967;28;20040;-78
2022/06/14 11:32:04;;;;;;;3.60;1.00;;;17.90;99.90;;;;;;5072872;28;20041;-76
2022/06/14 11:34:57;;;;;;;3.75;0.90;;;17.90;99.90;;;;;;5063270;28;20040;-79
2022/06/14 11:37:47;;;;;;;4.68;1.00;;;17.70;99.90;;;;;;5044203;28;20067;-80
2022/06/14 11:40:23;;;;;;;3.58;0.80;;;17.80;99.90;;;;;;5054114;28;20033;-81
2022/06/14 11:43:14;;;;;;;2.67;1.10;;;17.70;99.90;;;;;;5061795;28;20415;-81
2022/06/14 11:45:57;;;;;;;3.05;1.00;;;17.80;99.90;;;;;;5056569;28;20514;-81
2022/06/14 11:48:50;;;;;;;3.78;0.90;;;17.90;99.90;;;;;;5061720;28;20040;-80
2022/06/14 11:51:37;;;;;;;3.30;1.27;;;17.80;99.90;;;;;;5061900;28;20045;-81
2022/06/14 11:54:19;;;;;;;4.43;0.73;;;17.70;99.90;;;;;;5066216;28;20032;-80
2022/06/14 11:57:02;;;;;;;2.50;0.70;;;17.80;99.90;;;;;;5020405;28;20047;-81
2022/06/14 11:59:55;;;;;;;0.95;0.60;;;17.80;99.90;;;;;;5060737;28;20040;-81
2022/06/14 12:02:54;;;;;;;3.28;1.15;;;17.70;99.90;;;;;;5061013;28;20083;-79
2022/06/14 12:05:38;;;;;;;2.78;1.23;;;17.70;99.90;;;;;;5043945;28;20040;-79
2022/06/14 12:08:29;;;;;;;3.00;1.50;;;17.60;99.90;;;;;;5065030;28;20048;-80
2022/06/14 12:10:55;;;;;;;1.65;0.70;;;17.60;99.90;;;;;;5044574;28;20058;-82
2022/06/14 12:13:30;;;;;;;6.93;2.00;;;17.50;99.90;;;;;;5048454;28;20402;-80
2022/06/14 12:16:33;;;;;;;2.33;0.90;;;17.60;99.90;;;;;;5083239;28;20055;-82
2022/06/14 12:19:31;;;;;;;3.33;1.17;;;17.70;99.90;;;;;;5051333;28;20182;-81
2022/06/14 12:22:26;;;;;;;5.93;2.42;;;18.00;99.90;;;;;;5006907;28;20057;-80
2022/06/14 12:27:39;;;;;;;11.40;1.92;;;18.20;99.90;;;;;;5045717;28;20091;-81
2022/06/14 12:30:06;;;;;;;1.85;1.10;;;18.20;99.90;;;;;;5079507;28;20079;-81
2022/06/14 12:32:39;;;;;;;4.65;1.50;;;18.30;99.90;;;;;;5069671;28;20146;-80
2022/06/14 12:35:15;;;;;;;7.00;1.75;;;18.50;99.90;;;;;;5061025;28;20471;-81
2022/06/14 12:37:50;;;;;;;4.38;1.90;;;18.50;99.90;;;;;;5062061;28;20055;-81
2022/06/14 12:40:53;;;;;;;8.07;1.45;;;18.70;99.90;;;;;;5081134;28;20048;-80
2022/06/14 12:43:45;;;;;;;6.40;1.67;;;18.70;99.90;;;;;;5067226;28;20614;-77
2022/06/14 12:46:15;;;;;;;2.88;1.30;;;18.70;99.90;;;;;;5069856;28;20405;-81
2022/06/14 12:49:21;;;;;;;4.25;1.98;;;18.70;99.90;;;;;;5080039;28;20076;-82
2022/06/14 12:52:01;;;;;;;4.57;1.70;;;18.80;99.90;;;;;;5019199;28;20053;-81
2022/06/14 12:54:33;;;;;;;7.72;1.58;;;18.80;99.90;;;;;;5046744;28;20046;-81
2022/06/14 12:57:10;;;;;;;7.13;1.58;;;18.60;99.90;;;;;;5047373;28;20053;-82
2022/06/14 12:59:48;;;;;;;4.75;1.33;;;18.60;99.90;;;;;;5059950;28;20455;-82
2022/06/14 13:02:24;;;;;;;9.50;1.88;;;18.60;99.90;;;;;;5049286;28;20803;-82
2022/06/14 13:05:00;;;;;;;4.15;1.67;;;18.90;99.90;;;;;;5064145;28;20040;-81
2022/06/14 13:07:34;;;;;;;2.85;0.90;;;19.10;99.90;;;;;;5085534;28;20089;-81
2022/06/14 13:10:19;;;;;;;5.70;1.63;;;19.30;99.90;;;;;;5086495;28;20717;-82
2022/06/14 13:13:05;;;;;;;3.03;1.50;;;19.30;99.90;;;;;;5086658;28;20055;-82
2022/06/14 13:15:34;;;;;;;2.92;1.52;;;19.40;99.90;;;;;;5085210;28;20482;-82
2022/06/14 13:18:20;;;;;;;3.38;1.00;;;19.40;99.90;;;;;;5082663;28;20044;-82
2022/06/14 13:20:57;;;;;;;5.10;2.53;;;19.40;99.90;;;;;;5060689;28;20098;-81
2022/06/14 13:23:51;;;;;;;2.97;1.10;;;19.40;99.90;;;;;;5047955;28;20109;-80
2022/06/14 13:26:42;;;;;;;5.85;1.52;;;19.50;99.90;;;;;;5054787;28;20487;-82
2022/06/14 13:29:29;;;;;;;4.88;1.60;;;19.50;99.90;;;;;;5066954;28;20566;-84
2022/06/14 13:32:10;;;;;;;3.33;1.10;;;19.80;99.90;;;;;;5069819;28;20051;-81
2022/06/14 13:34:38;;;;;;;5.18;1.48;;;19.80;99.90;;;;;;5086911;28;20100;-82
2022/06/14 13:37:15;;;;;;;3.33;1.27;;;20.00;99.90;;;;;;5065683;28;20033;-81
2022/06/14 13:40:05;;;;;;;2.53;1.25;;;19.90;99.90;;;;;;5045962;28;20482;-81
2022/06/14 13:43:04;;;;;;;3.55;1.52;;;19.80;99.90;;;;;;5046239;28;20468;-80
2022/06/14 13:45:45;;;;;;;2.60;0.95;;;20.00;99.90;;;;;;5042141;28;20052;-82
2022/06/14 13:48:32;;;;;;;3.22;1.27;;;20.10;99.90;;;;;;5051978;28;20050;-81
2022/06/14 13:51:11;;;;;;;3.08;1.38;;;20.20;99.90;;;;;;5074696;28;20060;-79
2022/06/14 13:53:44;;;;;;;3.40;1.08;;;20.20;99.90;;;;;;5047430;28;20052;-80
2022/06/14 13:56:20;;;;;;;5.10;0.90;;;20.60;99.90;;;;;;5064332;28;20182;-78
2022/06/14 13:59:06;;;;;;;5.45;1.10;;;20.60;99.90;;;;;;5066194;28;20055;-79
2022/06/14 14:01:36;;;;;;;1.83;1.23;;;20.40;99.90;;;;;;5064703;28;20036;-78
2022/06/14 14:04:34;;;;;;;3.25;1.05;;;20.20;99.90;;;;;;5064075;28;20432;-79
2022/06/14 14:07:05;;;;;;;5.25;1.75;;;20.00;99.90;;;;;;5063776;28;20048;-78
2022/06/14 14:09:54;;;;;;;5.18;1.85;;;19.60;99.90;;;;;;5047247;28;20055;-78
2022/06/14 14:12:38;;;;;;;7.35;2.60;;;19.40;99.90;;;;;;5063578;28;20036;-78